Terminal Aerodrome Forecast
Issued by NWS

Home | Current Version | Previous Version | Text Only | Print | Product List | Glossary On
Versions: 1 2 3 4 5 6 7 8 9 10 11 12 13 14 15 16 17 18 19 20 21
000
FTUS43 KMPX 291500 AAA
TAFRNH
TAF AMD
KRNH 291510Z 2915/3012 18007KT P6SM VCTS BKN008CB BKN035 OVC100
      TEMPO 2915/2917 +SHRA BKN012
     FM291700 19006KT P6SM -SHRA SCT020 BKN050
     FM292000 22005KT P6SM VCSH SCT025 OVC120
      TEMPO 2922/3001 2SM -TSRA BKN020CB
     FM300400 VRB04KT 5SM BR SCT010 OVC020
     FM300900 35003KT 3SM BR OVC004=

USA.gov is the U.S. government's official web portal to all federal, state and local government web resources and services.